Time;durP1;ratioP1;P1;durP2;ratioP2;P2;SDS_P1;SDS_P2;PMS_P1;PMS_P2;Temp;Humidity;BMP_temperature;BMP_pressure;BME280_temperature;BME280_humidity;BME280_pressure;Samples;Min_cycle;Max_cycle;Signal;HPM_P1;HPM_P2
2023/10/23 00:03:37;;;;;;;14.73;11.23;;;;;;;9.49;100.00;100841.00;10378835;28;20137;-81
2023/10/23 00:08:38;;;;;;;13.52;10.52;;;;;;;9.40;100.00;100827.81;10377989;28;20417;-81
2023/10/23 00:13:39;;;;;;;12.02;10.23;;;;;;;9.10;100.00;100768.81;10378369;28;20557;-83
2023/10/23 00:18:40;;;;;;;13.93;10.57;;;;;;;9.14;100.00;100792.22;10377672;28;20133;-82
2023/10/23 00:23:40;;;;;;;13.48;10.75;;;;;;;9.30;100.00;100804.84;10377758;28;20421;-83
2023/10/23 00:28:41;;;;;;;19.13;10.40;;;;;;;9.27;100.00;100793.66;10378269;28;20060;-82
2023/10/23 00:33:42;;;;;;;13.52;10.90;;;;;;;9.78;100.00;100890.38;10376765;28;20038;-80
2023/10/23 00:38:43;;;;;;;13.23;10.07;;;;;;;9.73;100.00;100882.03;10375882;28;20057;-81
2023/10/23 00:43:44;;;;;;;16.30;10.52;;;;;;;9.73;100.00;100864.31;10377654;28;20489;-83
2023/10/23 00:48:46;;;;;;;15.90;10.20;;;;;;;9.55;100.00;100832.44;10376394;28;20037;-81
2023/10/23 00:53:48;;;;;;;14.30;10.77;;;;;;;9.87;100.00;100876.22;10376620;28;20042;-82
2023/10/23 00:58:49;;;;;;;15.45;10.48;;;;;;;9.74;100.00;100850.03;10375035;28;20375;-85
2023/10/23 01:03:50;;;;;;;17.33;9.98;;;;;;;9.55;100.00;100821.00;10358058;28;20049;-83
2023/10/23 01:08:51;;;;;;;14.07;9.52;;;;;;;9.60;100.00;100818.72;10376808;28;20046;-82
2023/10/23 01:13:52;;;;;;;14.93;10.00;;;;;;;9.55;100.00;100821.00;10363355;28;20046;-83
2023/10/23 01:18:53;;;;;;;12.40;10.13;;;;;;;9.74;100.00;100867.78;10375568;28;20081;-83
2023/10/23 01:23:58;;;;;;;14.02;10.18;;;;;;;9.25;100.00;100787.69;10374376;28;20136;-81
2023/10/23 01:28:59;;;;;;;15.50;10.13;;;;;;;9.51;100.00;100815.19;10375492;28;20045;-80
2023/10/23 01:34:00;;;;;;;16.35;9.73;;;;;;;10.01;100.00;100912.03;10376087;28;20112;-83
2023/10/23 01:39:00;;;;;;;13.15;9.35;;;;;;;9.79;100.00;100889.41;10373969;28;20037;-81
2023/10/23 01:44:02;;;;;;;14.57;10.25;;;;;;;9.76;100.00;100874.63;10373920;28;20203;-79
2023/10/23 01:49:04;;;;;;;12.90;9.52;;;;;;;9.85;100.00;100891.47;10373848;28;20513;-81
2023/10/23 01:54:05;;;;;;;11.55;9.07;;;;;;;9.44;100.00;100802.66;10374032;28;20045;-79
2023/10/23 01:59:05;;;;;;;11.18;9.07;;;;;;;9.89;100.00;100868.09;10372145;28;20053;-84
2023/10/23 02:04:07;;;;;;;12.25;8.55;;;;;;;9.52;100.00;100816.84;10373039;28;20048;-82
2023/10/23 02:09:08;;;;;;;14.25;10.05;;;;;;;9.41;100.00;100795.00;10353621;28;20133;-82
2023/10/23 02:14:09;;;;;;;13.70;9.52;;;;;;;9.69;100.00;100832.91;10373106;28;20111;-82
2023/10/23 02:19:09;;;;;;;18.02;9.95;;;;;;;10.18;100.00;100918.34;10358556;28;20088;-79
2023/10/23 02:24:10;;;;;;;13.27;9.70;;;;;;;9.90;100.00;100856.50;10333166;28;20041;-79
2023/10/23 02:29:11;;;;;;;13.25;9.93;;;;;;;10.17;100.00;100900.72;10350436;28;20153;-78
2023/10/23 02:34:12;;;;;;;14.50;10.73;;;;;;;9.65;100.00;100815.63;10369743;28;20053;-77
2023/10/23 02:39:12;;;;;;;14.30;10.45;;;;;;;10.19;100.00;100904.06;10315937;28;20030;-77
2023/10/23 02:44:14;;;;;;;18.02;10.90;;;;;;;10.12;100.00;100881.78;10332106;28;20537;-76
2023/10/23 02:49:14;;;;;;;27.02;10.73;;;;;;;10.18;100.00;100882.00;10331812;28;20057;-77
2023/10/23 02:54:16;;;;;;;20.35;10.30;;;;;;;10.11;100.00;100880.94;10313792;28;20515;-77
2023/10/23 02:59:17;;;;;;;15.32;10.25;;;;;;;10.07;100.00;100866.28;10313867;28;20108;-77
2023/10/23 03:04:17;;;;;;;23.67;10.95;;;;;;;10.29;100.00;100888.94;10331609;28;20046;-77
2023/10/23 03:09:18;;;;;;;14.50;9.98;;;;;;;9.77;100.00;100811.78;10331067;28;20502;-77
2023/10/23 03:14:19;;;;;;;21.25;10.85;;;;;;;9.91;100.00;100800.63;10331449;28;20050;-77
2023/10/23 03:19:22;;;;;;;18.17;11.05;;;;;;;9.92;100.00;100796.97;10331145;28;20510;-77
2023/10/23 03:24:23;;;;;;;21.08;11.63;;;;;;;10.33;100.00;100854.94;10337542;28;20573;-77
2023/10/23 03:29:24;;;;;;;20.23;12.40;;;;;;;10.50;100.00;100881.47;10344936;28;20170;-80
2023/10/23 03:34:25;;;;;;;24.60;12.38;;;;;;;10.63;100.00;100882.88;10378667;28;20099;-76
2023/10/23 03:39:26;;;;;;;27.30;13.10;;;;;;;10.68;100.00;100873.47;10379094;28;20052;-71
2023/10/23 03:44:26;;;;;;;20.70;12.75;;;;;;;10.57;100.00;100843.66;10378384;28;20064;-71
2023/10/23 03:49:30;;;;;;;24.55;12.82;;;;;;;10.67;100.00;100857.66;10378701;28;20137;-73
2023/10/23 03:54:31;;;;;;;30.70;13.30;;;;;;;10.11;100.00;100773.91;10377939;28;20099;-71
2023/10/23 03:59:32;;;;;;;23.27;14.10;;;;;;;10.65;100.00;100865.81;10378611;28;20065;-84
2023/10/23 04:04:33;;;;;;;21.35;12.85;;;;;;;9.70;100.00;100707.25;10378776;28;20390;-77
2023/10/23 04:09:33;;;;;;;27.13;13.18;;;;;;;10.75;100.00;100876.31;10378375;28;20519;-72
2023/10/23 04:14:34;;;;;;;19.65;12.57;;;;;;;10.61;100.00;100858.28;10377270;28;20524;-80
2023/10/23 04:19:35;;;;;;;20.08;13.23;;;;;;;10.71;100.00;100880.28;10378092;28;20117;-76
2023/10/23 04:24:36;;;;;;;25.58;14.10;;;;;;;10.48;100.00;100835.63;10378198;28;20100;-81
2023/10/23 04:29:36;;;;;;;22.05;13.52;;;;;;;10.26;100.00;100789.16;10358682;28;20037;-74
2023/10/23 04:34:37;;;;;;;18.25;12.23;;;;;;;10.37;100.00;100804.00;10375480;28;20046;-87
2023/10/23 04:39:38;;;;;;;20.55;13.07;;;;;;;10.12;100.00;100751.69;10377201;28;20521;-80
2023/10/23 04:44:39;;;;;;;33.35;12.50;;;;;;;10.53;100.00;100811.25;10373460;28;20061;-80
2023/10/23 04:49:39;;;;;;;26.33;12.23;;;;;;;10.58;100.00;100813.44;10353860;28;20042;-79
2023/10/23 04:54:40;;;;;;;31.65;11.20;;;;;;;10.46;100.00;100816.34;10376550;28;20041;-79
2023/10/23 04:59:41;;;;;;;21.88;10.52;;;;;;;10.22;100.00;100802.88;10376483;28;20048;-79
2023/10/23 05:04:42;;;;;;;14.32;9.82;;;;;;;10.84;100.00;100909.94;10375991;28;20041;-80
2023/10/23 05:09:42;;;;;;;14.07;9.70;;;;;;;10.79;100.00;100885.66;10375832;28;20129;-79
2023/10/23 05:14:44;;;;;;;13.80;9.63;;;;;;;10.33;100.00;100801.81;10375533;28;20038;-79
2023/10/23 05:19:47;;;;;;;14.40;9.75;;;;;;;10.12;100.00;100763.13;10375451;28;20037;-80
2023/10/23 05:24:48;;;;;;;19.90;9.37;;;;;;;10.91;100.00;100873.75;10375348;28;20038;-82
2023/10/23 05:29:49;;;;;;;16.92;9.95;;;;;;;10.69;100.00;100818.50;10375745;28;20081;-79
2023/10/23 05:34:49;;;;;;;14.05;10.13;;;;;;;10.66;100.00;100810.84;10374725;28;20065;-81
2023/10/23 05:39:50;;;;;;;17.05;10.27;;;;;;;11.20;100.00;100900.00;10374951;28;20049;-81
2023/10/23 05:44:51;;;;;;;13.00;9.10;;;;;;;11.25;100.00;100896.03;10373885;28;20066;-80
2023/10/23 05:49:52;;;;;;;13.77;8.93;;;;;;;10.57;100.00;100786.03;10373816;28;20080;-80
2023/10/23 05:54:53;;;;;;;17.13;9.50;;;;;;;11.30;100.00;100880.44;10373879;28;20088;-81
2023/10/23 05:59:54;;;;;;;12.73;9.00;;;;;;;11.39;100.00;100888.28;10373274;28;20076;-81
2023/10/23 06:04:55;;;;;;;23.55;10.43;;;;;;;11.46;100.00;100892.97;10373608;28;20041;-81
2023/10/23 06:09:56;;;;;;;13.93;8.57;;;;;;;11.20;100.00;100833.53;10373738;28;20049;-81
2023/10/23 06:14:58;;;;;;;17.38;9.45;;;;;;;10.96;100.00;100789.06;10374010;28;20093;-81
2023/10/23 06:20:00;;;;;;;14.43;9.40;;;;;;;11.02;100.00;100784.09;10373023;28;20061;-81
2023/10/23 06:25:01;;;;;;;13.57;9.50;;;;;;;10.77;100.00;100717.56;10373021;28;20564;-81
2023/10/23 06:30:02;;;;;;;11.75;8.73;;;;;;;11.51;100.00;100829.47;10372446;28;20041;-82
2023/10/23 06:35:04;;;;;;;16.08;9.70;;;;;;;11.77;100.00;100837.38;10373047;28;20037;-82
2023/10/23 06:40:06;;;;;;;14.50;9.93;;;;;;;11.63;100.00;100781.09;10372491;28;20038;-81
2023/10/23 06:45:07;;;;;;;13.52;8.88;;;;;;;12.11;100.00;100829.25;10372591;28;20088;-81
2023/10/23 06:50:10;;;;;;;12.88;9.15;;;;;;;12.21;100.00;100835.28;10372049;28;20048;-82
2023/10/23 06:55:12;;;;;;;15.88;9.13;;;;;;;11.42;100.00;100691.13;10374060;28;20053;-81
2023/10/23 07:00:13;;;;;;;32.67;15.65;;;;;;;11.88;100.00;100766.03;10363327;28;20168;-81
2023/10/23 07:05:14;;;;;;;68.68;45.10;;;;;;;12.44;100.00;100834.59;10380672;28;20129;-81
2023/10/23 07:10:15;;;;;;;52.85;34.05;;;;;;;11.98;100.00;100754.38;10379827;28;20560;-81
2023/10/23 07:15:16;;;;;;;16.15;11.68;;;;;;;12.42;100.00;100812.63;10380611;28;20502;-81
2023/10/23 07:20:17;;;;;;;20.25;9.90;;;;;;;12.42;100.00;100783.31;10380411;28;20104;-82
2023/10/23 07:25:17;;;;;;;52.60;33.28;;;;;;;11.67;100.00;100619.28;10378565;28;20129;-82
2023/10/23 07:30:18;;;;;;;30.63;20.40;;;;;;;12.53;100.00;100724.31;10379060;28;20033;-81
2023/10/23 07:35:20;;;;;;;20.58;10.45;;;;;;;12.76;100.00;100754.56;10379284;28;20038;-82
2023/10/23 07:40:21;;;;;;;14.70;10.95;;;;;;;12.71;100.00;100716.09;10380012;28;20406;-80
2023/10/23 07:45:22;;;;;;;15.55;11.10;;;;;;;12.74;100.00;100702.41;10379405;28;20116;-81
2023/10/23 07:50:24;;;;;;;13.23;9.88;;;;;;;12.82;100.00;100696.22;10379392;28;20521;-81
2023/10/23 07:55:25;;;;;;;47.17;10.90;;;;;;;13.14;100.00;100724.56;10378741;28;20460;-82
2023/10/23 08:00:28;;;;;;;16.00;9.93;;;;;;;13.26;100.00;100699.19;10378243;28;20173;-81
2023/10/23 08:05:29;;;;;;;13.53;10.23;;;;;;;13.46;100.00;100723.53;10378545;28;20185;-80
2023/10/23 08:10:30;;;;;;;12.30;10.23;;;;;;;13.77;100.00;100752.03;10377894;28;20132;-80
2023/10/23 08:15:31;;;;;;;22.48;10.05;;;;;;;13.20;100.00;100617.97;10377038;28;20410;-81
2023/10/23 08:20:35;;;;;;;13.13;9.50;;;;;;;14.09;100.00;100721.53;10359511;28;20052;-80
2023/10/23 08:25:35;;;;;;;11.88;8.75;;;;;;;14.08;100.00;100672.59;10360283;28;20055;-80
2023/10/23 08:30:38;;;;;;;16.08;8.40;;;;;;;14.16;100.00;100627.09;10359934;28;20042;-80
2023/10/23 08:35:38;;;;;;;13.13;7.78;;;;;;;14.46;100.00;100653.81;10376577;28;20048;-81
2023/10/23 08:40:39;;;;;;;11.38;7.45;;;;;;;14.63;100.00;100640.28;10376624;28;20044;-82
2023/10/23 08:45:43;;;;;;;10.40;7.65;;;;;;;14.79;99.86;100629.38;10376246;28;20062;-81
2023/10/23 08:50:46;;;;;;;20.10;7.80;;;;;;;15.38;98.88;100688.03;10376582;28;20045;-82
2023/10/23 08:55:47;;;;;;;11.85;6.88;;;;;;;14.63;98.03;100562.72;10376331;28;20277;-81
2023/10/23 09:00:48;;;;;;;11.05;7.55;;;;;;;15.20;98.24;100677.78;10376654;28;20042;-80
2023/10/23 09:05:49;;;;;;;10.38;7.32;;;;;;;14.63;98.44;100579.63;10375291;28;20046;-81
2023/10/23 09:11:03;;;;;;;13.95;7.78;;;;;;;15.41;97.44;100673.44;10376690;28;20041;-82
2023/10/23 09:16:08;;;;;;;12.88;7.03;;;;;;;15.55;97.36;100677.06;10375777;28;20056;-82
2023/10/23 09:21:11;;;;;;;15.40;8.27;;;;;;;15.46;96.16;100622.81;10374377;28;20037;-81
2023/10/23 09:26:13;;;;;;;12.77;7.63;;;;;;;15.40;95.47;100583.44;10373766;28;20107;-81
2023/10/23 09:31:14;;;;;;;13.07;8.75;;;;;;;15.72;94.78;100612.34;10375048;28;20040;-81
2023/10/23 09:36:15;;;;;;;11.90;8.40;;;;;;;15.68;94.13;100575.44;10376149;28;20037;-80
2023/10/23 09:41:16;;;;;;;14.68;9.00;;;;;;;15.61;93.51;100543.22;10357868;28;20148;-81
2023/10/23 09:46:19;;;;;;;14.75;9.23;;;;;;;16.43;92.36;100625.53;10374510;28;20136;-81
2023/10/23 09:51:24;;;;;;;17.00;9.80;;;;;;;16.58;90.27;100562.91;10374326;28;20048;-82
2023/10/23 09:56:31;;;;;;;13.40;8.68;;;;;;;16.59;88.66;100508.22;10357182;28;20128;-81
2023/10/23 10:01:47;;;;;;;11.77;8.00;;;;;;;17.16;86.97;100568.59;10374598;28;20045;-83
2023/10/23 10:06:53;;;;;;;13.50;8.70;;;;;;;17.05;87.12;100496.72;10356979;28;20096;-82
2023/10/23 10:11:57;;;;;;;14.00;8.18;;;;;;;17.64;86.26;100560.31;10373426;28;20037;-82
2023/10/23 10:16:59;;;;;;;16.95;9.18;;;;;;;17.47;86.11;100500.00;10373269;28;20046;-81
2023/10/23 10:22:07;;;;;;;15.73;8.27;;;;;;;17.91;84.08;100546.84;10373730;28;20038;-82
2023/10/23 10:27:08;;;;;;;18.55;9.93;;;;;;;18.09;84.44;100546.97;10373585;28;20099;-82
2023/10/23 10:32:10;;;;;;;15.52;7.60;;;;;;;18.02;83.30;100513.94;10372871;28;20140;-80
2023/10/23 10:37:11;;;;;;;13.70;8.00;;;;;;;17.46;83.42;100429.34;10372941;28;20037;-80
2023/10/23 10:42:39;;;;;;;16.50;6.78;;;;;;;17.89;82.14;100481.72;10372615;28;20050;-80
2023/10/23 10:47:43;;;;;;;17.55;7.10;;;;;;;18.07;82.33;100479.19;10349459;28;20053;-80
2023/10/23 10:52:44;;;;;;;10.82;6.18;;;;;;;17.83;81.93;100435.06;10372958;28;20108;-81
2023/10/23 10:57:46;;;;;;;14.15;6.50;;;;;;;18.29;82.08;100528.09;10372863;28;20383;-80
2023/10/23 11:02:47;;;;;;;11.63;7.43;;;;;;;18.11;82.54;100501.91;10371666;28;20116;-82
2023/10/23 11:07:49;;;;;;;11.45;6.88;;;;;;;17.72;82.31;100439.19;10372032;28;20050;-82
2023/10/23 11:12:50;;;;;;;15.20;6.50;;;;;;;17.79;82.31;100437.31;10372809;28;20581;-81
2023/10/23 11:17:52;;;;;;;13.05;6.22;;;;;;;17.85;82.40;100442.88;10371755;28;20148;-82
2023/10/23 11:22:52;;;;;;;10.98;6.47;;;;;;;18.15;82.50;100492.34;10372270;28;20073;-81
2023/10/23 11:27:54;;;;;;;16.05;7.78;;;;;;;18.05;82.04;100462.44;10371212;28;20070;-82
2023/10/23 11:32:56;;;;;;;10.75;6.30;;;;;;;17.70;81.68;100384.00;10371437;28;20034;-81
2023/10/23 11:37:57;;;;;;;17.13;8.50;;;;;;;18.43;80.97;100483.94;10371528;28;20038;-81
2023/10/23 11:42:58;;;;;;;9.35;6.25;;;;;;;18.34;80.89;100463.72;10373577;28;20157;-82
2023/10/23 11:47:59;;;;;;;16.58;6.28;;;;;;;17.99;80.71;100409.53;10379395;28;20108;-81
2023/10/23 11:52:59;;;;;;;14.77;6.95;;;;;;;17.95;80.49;100395.72;10379642;28;20512;-82
2023/10/23 11:58:01;;;;;;;14.80;6.75;;;;;;;18.27;80.79;100424.47;10378522;28;20084;-81
2023/10/23 12:03:02;;;;;;;17.80;6.72;;;;;;;18.02;80.40;100371.47;10378372;28;20042;-81
2023/10/23 12:08:03;;;;;;;11.20;6.07;;;;;;;17.99;80.31;100364.66;10378151;28;20485;-82
2023/10/23 12:13:04;;;;;;;12.05;5.88;;;;;;;18.35;80.65;100426.91;10377626;28;20141;-82
2023/10/23 12:18:05;;;;;;;15.02;6.60;;;;;;;18.16;80.54;100399.94;10360352;28;20132;-82
2023/10/23 12:23:06;;;;;;;11.40;5.80;;;;;;;17.86;80.38;100350.47;10376882;28;20076;-81
2023/10/23 12:28:07;;;;;;;10.48;6.05;;;;;;;18.32;80.93;100451.53;10377961;28;20052;-82
2023/10/23 12:33:08;;;;;;;14.18;6.00;;;;;;;17.79;81.57;100380.88;10359359;28;20049;-81
2023/10/23 12:38:10;;;;;;;17.40;6.13;;;;;;;18.03;81.50;100419.63;10346229;28;20489;-81
2023/10/23 12:43:11;;;;;;;15.38;5.93;;;;;;;17.75;82.12;100387.72;10338939;28;20065;-81
2023/10/23 12:48:12;;;;;;;27.73;6.43;;;;;;;17.73;82.26;100362.09;10358093;28;20038;-82
2023/10/23 12:53:13;;;;;;;15.38;6.25;;;;;;;18.04;82.40;100420.47;10376429;28;20042;-82
2023/10/23 12:58:14;;;;;;;13.07;6.55;;;;;;;17.97;82.74;100403.53;10366773;28;20132;-82
2023/10/23 13:03:15;;;;;;;15.30;7.82;;;;;;;17.81;82.75;100371.81;10376376;28;20152;-83
2023/10/23 13:08:15;;;;;;;31.00;8.05;;;;;;;17.90;82.79;100375.88;10350397;28;20034;-83
2023/10/23 13:13:16;;;;;;;16.83;6.30;;;;;;;18.05;82.73;100379.09;10344544;28;20046;-83
2023/10/23 13:23:27;;;;;;;14.30;6.75;;;;;;;18.07;82.97;100374.34;10752622;23;20093;-69
2023/10/23 13:28:28;;;;;;;33.67;7.03;;;;;;;17.95;83.15;100370.69;10366214;28;20104;-69
2023/10/23 13:33:29;;;;;;;17.98;6.18;;;;;;;17.88;83.51;100367.22;10373968;28;20526;-69
2023/10/23 13:38:30;;;;;;;14.43;6.35;;;;;;;17.83;83.94;100373.25;10374650;28;20559;-68
2023/10/23 13:43:31;;;;;;;26.23;6.18;;;;;;;17.66;84.37;100356.75;10374212;28;20076;-72
2023/10/23 13:48:31;;;;;;;21.20;7.10;;;;;;;17.53;84.56;100368.38;10374956;28;20073;-70
2023/10/23 13:53:32;;;;;;;13.02;6.90;;;;;;;17.33;85.30;100371.13;10373620;28;20061;-71
2023/10/23 13:58:33;;;;;;;49.42;9.13;;;;;;;16.81;86.36;100337.19;10374062;28;20038;-69
2023/10/23 14:03:34;;;;;;;20.70;7.38;;;;;;;16.36;87.45;100321.75;10374046;28;20088;-71
2023/10/23 14:08:37;;;;;;;45.55;8.50;;;;;;;16.49;88.45;100379.09;10371748;28;20045;-69
2023/10/23 14:13:38;;;;;;;155.63;12.52;;;;;;;16.15;89.40;100380.88;10373516;28;20044;-70
2023/10/23 14:18:38;;;;;;;33.05;8.45;;;;;;;15.84;90.33;100360.00;10372021;28;20057;-70
2023/10/23 14:23:40;;;;;;;74.63;9.88;;;;;;;15.56;91.34;100374.31;10373103;28;20058;-69
2023/10/23 14:28:40;;;;;;;79.22;14.88;;;;;;;15.39;92.83;100383.69;10371832;28;20052;-70
2023/10/23 14:33:41;;;;;;;64.30;17.55;;;;;;;15.28;93.23;100398.44;10371891;28;20046;-68
2023/10/23 14:38:42;;;;;;;55.60;20.08;;;;;;;14.97;94.15;100386.34;10371999;28;20034;-68
2023/10/23 14:43:43;;;;;;;95.97;20.48;;;;;;;14.90;94.39;100398.84;10371320;28;20041;-68
2023/10/23 14:48:45;;;;;;;77.97;20.67;;;;;;;14.42;95.02;100334.50;10372248;28;20103;-69
2023/10/23 14:53:46;;;;;;;60.85;18.50;;;;;;;13.95;95.44;100285.16;10371686;28;20066;-69
2023/10/23 14:58:46;;;;;;;52.28;15.57;;;;;;;14.32;96.31;100361.53;10336084;28;20133;-68
2023/10/23 15:03:48;;;;;;;67.57;16.83;;;;;;;14.07;96.83;100345.06;10341230;28;20048;-68
2023/10/23 15:08:49;;;;;;;48.00;16.20;;;;;;;14.30;96.97;100395.66;10371894;28;20046;-69
2023/10/23 15:13:50;;;;;;;52.30;17.58;;;;;;;14.09;97.06;100383.09;10371445;28;20041;-68
2023/10/23 15:18:54;;;;;;;41.97;14.38;;;;;;;13.95;97.69;100410.69;10375268;28;20069;-69
2023/10/23 15:23:54;;;;;;;34.13;13.68;;;;;;;13.95;98.12;100404.53;10380335;28;20481;-69
2023/10/23 15:28:55;;;;;;;103.55;48.30;;;;;;;13.96;98.18;100406.16;10378640;28;20072;-67
2023/10/23 15:33:56;;;;;;;64.85;30.63;;;;;;;13.87;98.69;100416.94;10379150;28;20057;-70
2023/10/23 15:38:57;;;;;;;76.97;34.72;;;;;;;13.78;98.64;100414.59;10377090;28;20125;-69
2023/10/23 15:59:29;;;;;;;65.78;29.58;;;;;;;13.08;100.00;100318.03;11724349;22;20522;-78
2023/10/23 16:04:30;;;;;;;51.22;20.17;;;;;;;13.47;100.00;100378.28;10415553;28;20156;-63
2023/10/23 16:09:30;;;;;;;98.72;29.52;;;;;;;13.10;100.00;100332.03;10411696;28;20046;-63
2023/10/23 16:14:31;;;;;;;58.05;21.90;;;;;;;13.22;100.00;100362.53;10418613;28;20052;-62
2023/10/23 16:19:32;;;;;;;41.63;14.55;;;;;;;13.28;100.00;100378.84;10418436;28;20416;-64
2023/10/23 16:24:33;;;;;;;52.63;16.98;;;;;;;13.10;100.00;100369.34;10417634;28;20128;-63
2023/10/23 16:29:33;;;;;;;41.40;14.63;;;;;;;13.07;100.00;100371.53;10417368;28;20045;-63
2023/10/23 16:34:34;;;;;;;27.85;12.10;;;;;;;12.89;100.00;100364.75;10417829;28;20047;-64
2023/10/23 16:39:35;;;;;;;22.95;10.68;;;;;;;12.91;100.00;100383.22;10417450;28;20040;-67
2023/10/23 16:44:36;;;;;;;25.77;11.52;;;;;;;12.86;100.00;100370.41;10417706;28;20132;-62
2023/10/23 16:49:37;;;;;;;25.95;10.25;;;;;;;12.78;100.00;100366.00;10417652;28;20119;-62
2023/10/23 16:54:38;;;;;;;21.23;10.18;;;;;;;12.62;100.00;100347.50;10417294;28;20034;-63
2023/10/23 16:59:39;;;;;;;29.38;10.65;;;;;;;12.64;100.00;100340.16;10397458;28;20481;-62
2023/10/23 17:04:40;;;;;;;23.83;10.75;;;;;;;12.62;100.00;100344.81;10380927;28;20045;-62
2023/10/23 17:09:41;;;;;;;20.88;10.02;;;;;;;12.62;100.00;100330.69;10374882;28;20046;-63
2023/10/23 17:14:41;;;;;;;32.75;10.02;;;;;;;12.56;100.00;100337.56;10371511;28;20044;-63
2023/10/23 17:19:46;;;;;;;16.67;9.55;;;;;;;12.05;100.00;100273.41;10375775;28;20405;-62
2023/10/23 17:24:47;;;;;;;25.75;10.88;;;;;;;12.32;100.00;100312.81;10374980;28;20049;-63
2023/10/23 17:29:48;;;;;;;30.10;11.18;;;;;;;12.24;100.00;100310.22;10373932;28;20037;-63
2023/10/23 17:34:48;;;;;;;38.47;10.95;;;;;;;12.22;100.00;100309.56;10373291;28;20571;-63
2023/10/23 17:39:49;;;;;;;17.27;10.27;;;;;;;12.23;100.00;100311.22;10373448;28;20060;-63
2023/10/23 17:44:50;;;;;;;20.70;10.90;;;;;;;12.05;100.00;100292.88;10373732;28;20045;-66
2023/10/23 17:49:54;;;;;;;27.80;11.80;;;;;;;12.07;100.00;100308.69;10372106;28;20137;-62
2023/10/23 17:54:56;;;;;;;32.20;12.27;;;;;;;12.05;100.00;100308.03;10372786;28;20439;-63
2023/10/23 17:59:58;;;;;;;26.90;10.93;;;;;;;11.89;100.00;100287.69;10374037;28;20054;-62
2023/10/23 18:04:59;;;;;;;25.10;12.00;;;;;;;11.87;100.00;100292.38;10374116;28;20512;-64
2023/10/23 18:10:00;;;;;;;26.73;12.43;;;;;;;11.86;100.00;100304.03;10372981;28;20042;-63
2023/10/23 18:15:01;;;;;;;30.02;14.40;;;;;;;11.78;100.00;100291.56;10373569;28;20046;-62
2023/10/23 18:20:02;;;;;;;44.00;17.63;;;;;;;11.42;100.00;100246.06;10373356;28;20091;-62
2023/10/23 18:25:03;;;;;;;46.50;23.33;;;;;;;11.66;100.00;100308.94;10372076;28;20044;-63
2023/10/23 18:30:05;;;;;;;59.28;28.15;;;;;;;11.49;100.00;100292.25;10373567;28;20033;-64
2023/10/23 18:35:06;;;;;;;60.90;31.75;;;;;;;11.35;100.00;100288.50;10372383;28;20049;-63
2023/10/23 18:40:07;;;;;;;56.60;29.85;;;;;;;11.00;100.00;100238.50;10373365;28;20038;-63
2023/10/23 18:45:09;;;;;;;74.03;28.23;;;;;;;10.58;100.00;100178.56;10371615;28;20050;-63
2023/10/23 18:50:10;;;;;;;66.97;25.70;;;;;;;10.73;100.00;100222.00;10372608;28;20038;-63
2023/10/23 18:55:11;;;;;;;66.55;25.25;;;;;;;10.98;100.00;100278.56;10372193;28;20485;-63
2023/10/23 19:00:15;;;;;;;62.60;25.08;;;;;;;10.67;100.00;100239.44;10372339;28;20137;-63
2023/10/23 19:05:16;;;;;;;61.60;27.93;;;;;;;10.88;100.00;100280.56;10371907;28;20056;-62
2023/10/23 19:10:17;;;;;;;53.05;23.70;;;;;;;10.15;100.00;100167.38;10372085;28;20052;-62
2023/10/23 19:15:17;;;;;;;70.82;23.35;;;;;;;10.51;100.00;100245.63;10372370;28;20042;-62
2023/10/23 19:20:18;;;;;;;54.38;21.50;;;;;;;10.51;100.00;100250.97;10371949;28;20053;-62
2023/10/23 19:25:19;;;;;;;51.33;20.20;;;;;;;10.47;100.00;100243.50;10371209;28;20038;-62
2023/10/23 19:30:21;;;;;;;39.67;19.15;;;;;;;10.36;100.00;100228.75;10371060;28;20073;-62
2023/10/23 19:35:23;;;;;;;47.78;17.92;;;;;;;10.25;100.00;100215.78;10371343;28;20050;-63
2023/10/23 19:40:24;;;;;;;29.45;16.10;;;;;;;10.17;100.00;100216.66;10372076;28;20049;-63
2023/10/23 19:45:25;;;;;;;27.63;15.15;;;;;;;10.33;100.00;100229.09;10371487;28;20045;-63
2023/10/23 19:50:26;;;;;;;37.40;14.95;;;;;;;10.28;100.00;100218.13;10370788;28;20104;-63
2023/10/23 19:55:27;;;;;;;36.03;13.68;;;;;;;9.86;100.00;100154.66;10371119;28;20137;-63
2023/10/23 20:00:29;;;;;;;24.80;12.90;;;;;;;10.21;100.00;100182.63;10370730;28;20054;-62
2023/10/23 20:05:30;;;;;;;30.60;12.35;;;;;;;10.25;100.00;100181.28;10375585;28;20073;-63
2023/10/23 20:10:32;;;;;;;18.65;11.32;;;;;;;10.05;100.00;100141.00;10378306;28;20038;-62
2023/10/23 20:15:32;;;;;;;21.25;13.50;;;;;;;10.24;100.00;100155.75;10376893;28;20041;-63
2023/10/23 20:20:33;;;;;;;42.20;13.40;;;;;;;10.05;100.00;100135.69;10377899;28;20124;-63
2023/10/23 20:25:35;;;;;;;33.53;15.48;;;;;;;10.18;100.00;100148.47;10377540;28;20042;-63
2023/10/23 20:30:36;;;;;;;26.63;14.45;;;;;;;10.22;100.00;100131.19;10377063;28;20041;-63
2023/10/23 20:35:37;;;;;;;20.88;14.32;;;;;;;10.19;100.00;100113.75;10377201;28;20048;-63
2023/10/23 20:40:38;;;;;;;29.20;16.52;;;;;;;10.18;100.00;100095.38;10376783;28;20037;-63
2023/10/23 20:45:39;;;;;;;30.08;17.52;;;;;;;10.34;100.00;100127.19;10376470;28;20053;-63
2023/10/23 20:50:40;;;;;;;30.35;18.25;;;;;;;10.42;100.00;100139.63;10377233;28;20503;-63
2023/10/23 20:55:41;;;;;;;27.00;16.25;;;;;;;10.43;100.00;100150.06;10375382;28;20045;-63
2023/10/23 21:00:42;;;;;;;39.90;23.17;;;;;;;10.11;100.00;100113.81;10376624;28;20497;-63
2023/10/23 21:05:42;;;;;;;37.22;18.42;;;;;;;10.33;100.00;100183.94;10376574;28;20479;-63
2023/10/23 21:10:43;;;;;;;34.25;19.65;;;;;;;10.18;100.00;100159.91;10375850;28;20413;-62
2023/10/23 21:15:44;;;;;;;32.67;20.75;;;;;;;10.13;100.00;100145.47;10375829;28;20045;-63
2023/10/23 21:20:45;;;;;;;38.75;21.30;;;;;;;9.82;100.00;100095.81;10375575;28;20045;-62
2023/10/23 21:25:46;;;;;;;32.15;20.73;;;;;;;10.01;100.00;100137.88;10374203;28;20068;-63
2023/10/23 21:30:47;;;;;;;36.42;21.35;;;;;;;9.95;100.00;100143.03;10375176;28;20095;-62
2023/10/23 21:35:47;;;;;;;34.72;21.58;;;;;;;9.83;100.00;100131.94;10374557;28;20129;-63
2023/10/23 21:40:48;;;;;;;36.65;21.52;;;;;;;9.76;100.00;100113.22;10374852;28;20408;-63
2023/10/23 21:45:49;;;;;;;44.00;23.73;;;;;;;9.68;100.00;100099.97;10374424;28;20406;-63
2023/10/23 21:50:50;;;;;;;38.92;21.88;;;;;;;9.76;100.00;100109.75;10374492;28;20045;-63
2023/10/23 21:55:51;;;;;;;38.35;21.75;;;;;;;9.34;100.00;100039.19;10372989;28;20034;-62
2023/10/23 22:00:52;;;;;;;38.65;21.73;;;;;;;9.38;100.00;100048.44;10374131;28;20060;-63
2023/10/23 22:05:53;;;;;;;35.30;20.95;;;;;;;9.59;100.00;100083.22;10373243;28;20124;-64
2023/10/23 22:10:54;;;;;;;38.50;23.05;;;;;;;9.64;100.00;100080.09;10372975;28;20038;-63
2023/10/23 22:15:55;;;;;;;36.58;20.75;;;;;;;9.64;100.00;100071.31;10373533;28;20116;-62
2023/10/23 22:20:56;;;;;;;40.03;20.25;;;;;;;9.66;100.00;100078.06;10372846;28;20041;-63
2023/10/23 22:25:57;;;;;;;35.35;20.77;;;;;;;9.59;100.00;100059.34;10372826;28;20046;-63
2023/10/23 22:30:58;;;;;;;34.67;21.63;;;;;;;9.45;100.00;100083.91;10373228;28;20068;-63
2023/10/23 22:35:58;;;;;;;30.60;20.33;;;;;;;9.39;100.00;100060.72;10373045;28;20038;-63
2023/10/23 22:40:59;;;;;;;30.42;19.67;;;;;;;9.33;100.00;100026.91;10372167;28;20073;-63
2023/10/23 22:46:00;;;;;;;32.72;20.42;;;;;;;9.45;100.00;100043.31;10373169;28;20448;-63
2023/10/23 22:51:01;;;;;;;35.30;21.45;;;;;;;9.51;100.00;100055.88;10372516;28;20523;-63
2023/10/23 22:56:02;;;;;;;32.65;20.98;;;;;;;9.42;100.00;100033.84;10372376;28;20049;-63